Current Weather

DuPage County

West Chicago, Illinois (KDPA)

Report from: Friday, February 3, 2023 11:52 PM CST
Current time: Saturday, February 4, 2023 12:30 AM CST

Nearby weather
Weather history
Weather forecast

Temperature-12.8°C (9.0°F)
Wind chill-19.6°C (-3.3°F)
Dew point-19.4°C (-2.9°F)
Winds 7 kts (3.6 m/s, 8.1 mph) South-Southeast (160°)
Visibility10 mi. (16.1 km)
Clouds Ceiling: Overcast 4,200 ft. (1,280 m)
Altimeter30.43 in.Hg (1030 mB)
Relative humidity58 %
Density altitude-4,064 ft. (-1,239 m)
Sea-level pressure103.2 kPa (1032 mB, 30.48 in.Hg)
Max temp last 6 hours-12.8°C (9.0°F)
Min temp last 6 hours-16.1°C (3.0°F)
Max temp last 24 hours-12.2°C (10.0°F)
Min temp last 24 hours-18.9°C (-2.0°F)
Remarks Automated weather observing station with precipitation discriminator
Pressure falling rapidly
Pressure falling more quickly
Flight conditions Visual Meteorological Conditions
Raw dataKDPA 040552Z 16007KT 10SM OVC042 M13/M19 A3043 RMK AO2 PRESFR SLP323 T11281194 11128 21161 411221189 58014
An unhandled exception has occurred. See browser dev tools for details. Reload 🗙